ADDS METAR Data INFO
IDs: Format: Raw Decoded Include TAF

Data at: 1000 UTC 12 Dec 2017

KADG 120953Z AUTO 33010G19KT 9SM FEW035 OVC050 M03/M07 A2976 RMK AO2 PK WND 35027/0918 SNE50 SLP088 P0000 T10331072 TSNO
KADG 120920Z AUTO 33019G27KT 4SM -SN SCT015 BKN035 OVC050 M03/M06 A2974 RMK AO2 PK WND 35027/0918 P0000 T10281061 TSNO
KADG 120910Z AUTO 34014G24KT 2SM -SN BR SCT012 BKN017 OVC036 M03/M05 A2974 RMK AO2 P0000 T10281050 TSNO
KADG 120853Z AUTO 35011G18KT 6SM -SN BKN019 OVC025 M02/M05 A2973 RMK AO2 SNB32 SLP078 P0000 60000 T10171050 53021 TSNO
KADG 120839Z AUTO 35011KT 6SM -SN BKN020 BKN036 OVC065 M02/M05 A2972 RMK AO2 SNB32 P0000 T10171050 TSNO
KADG 120803Z AUTO 35015G24KT 10SM FEW021 OVC060 M01/M06 A2971 RMK AO2 T10111056 TSNO
KADG 120753Z AUTO 35015G22KT 10SM FEW018 BKN028 OVC060 M01/M05 A2971 RMK AO2 SLP071 T10111050 TSNO
KADG 120720Z AUTO 33015G25KT 10SM SCT010 OVC016 M01/M03 A2969 RMK AO2 T10061033 TSNO
KADG 120653Z AUTO 34011G19KT 7SM OVC009 M01/M02 A2967 RMK AO2 SLP059 T10061022 TSNO
KADG 120634Z AUTO 33014G18KT 5SM BR OVC009 M01/M02 A2967 RMK AO2 T10061022 TSNO
KADG 120608Z AUTO 33008KT 6SM BR BKN011 BKN025 OVC038 M01/M02 A2967 RMK AO2 T10061022 TSNO
KADG 120600Z AUTO 33008KT 6SM BR SCT010 OVC038 M01/M03 A2967 RMK AO2 T10111028 TSNO
KADG 120553Z AUTO 33006KT 6SM BR BKN010 OVC040 M01/M03 A2966 RMK AO2 SNE00 SLP057 P0000 60004 T10111028 11011 21022 56009 TSNO
KADG 120511Z AUTO 32004KT 5SM BR BKN014 BKN027 OVC055 M02/M03 A2967 RMK AO2 SNE00 P0000 T10221028 TSNO
KADG 120501Z AUTO 33003KT 4SM BR SCT014 BKN021 OVC055 M02/M03 A2967 RMK AO2 SNE00 P0000 T10221028 TSNO
KADG 120453Z AUTO 34003KT 2 1/2SM -SN BR BKN020 OVC055 M02/M03 A2967 RMK AO2 SLP058 P0002 T10221028 410111050 TSNO
KADG 120446Z AUTO 35003KT 1 3/4SM -SN BR FEW011 OVC018 M02/M03 A2966 RMK AO2 P0001 T10221033 TSNO
KADG 120433Z AUTO 36003KT 1 1/2SM -SN BR OVC014 M02/M03 A2967 RMK AO2 P0001 T10221028 TSNO
KADG 120353Z AUTO 01004KT 1 1/2SM -SN BR OVC016 M02/M03 A2967 RMK AO2 SLP059 P0002 T10221028 TSNO
KADG 120331Z AUTO 02004KT 1 1/2SM -SN BR OVC020 M02/M03 A2968 RMK AO2 P0001 T10221033 TSNO
KADG 120322Z AUTO 02005KT 1 3/4SM -SN BR OVC024 M02/M03 A2968 RMK AO2 P0001 T10221033 TSNO
KADG 120305Z AUTO 02005KT 2SM -SN BR OVC023 M02/M03 A2969 RMK AO2 P0000 T10221033 TSNO
KADG 120253Z AUTO 03005KT 1 1/4SM -SN BR OVC022 M02/M03 A2969 RMK AO2 SNB17 SLP066 P0000 60000 T10221033 58017 TSNO
KADG 120246Z AUTO 03005KT 1 1/2SM -SN BR OVC022 M02/M03 A2970 RMK AO2 SNB17 P0000 T10221033 TSNO
KADG 120243Z AUTO 03006KT 2SM -SN BR OVC024 M02/M03 A2970 RMK AO2 SNB17 P0000 T10221033 TSNO
KADG 120232Z AUTO 02006KT 2SM -SN BR OVC030 M02/M03 A2970 RMK AO2 SNB17 P0000 T10171033 TSNO
KADG 120153Z AUTO 04004KT 10SM OVC042 M01/M04 A2971 RMK AO2 SLP072 T10111039 TSNO
KADG 120053Z AUTO 09003KT 10SM OVC065 M01/M04 A2972 RMK AO2 SLP076 T10111044 TSNO
KADG 112353Z AUTO 00000KT 10SM BKN060 OVC075 M02/M04 A2974 RMK AO2 SLP083 60000 T10171044 11011 21022 56018 TSNO
KADG 112253Z AUTO 16003KT 10SM OVC070 M01/M04 A2975 RMK AO2 SLP087 T10111044 TSNO
KADG 112153Z AUTO 16006KT 10SM OVC070 M01/M04 A2977 RMK AO2 SNE00 SLP092 P0000 T10111044 TSNO
KADG 112053Z AUTO 18007KT 6SM -SN SCT021 BKN046 OVC060 M01/M04 A2979 RMK AO2 SNB49 SLP101 P0000 60000 T10111044 56034 TSNO
KADG 112022Z AUTO 19010KT 10SM SCT021 OVC060 M01/M05 A2981 RMK AO2 T10111050 TSNO
KADG 112003Z AUTO 19009KT 10SM BKN023 OVC060 M01/M05 A2982 RMK AO2 T10111050 TSNO
KADG 111953Z AUTO 20008KT 10SM SCT023 OVC060 M02/M04 A2983 RMK AO2 SLP112 T10171044 TSNO
KADG 111931Z AUTO 20009KT 10SM SCT023 OVC065 M02/M05 A2983 RMK AO2 T10171050 TSNO
KADG 111853Z AUTO 19008KT 10SM BKN018 OVC023 M02/M04 A2986 RMK AO2 SLP123 T10171044 TSNO
KADG 111838Z AUTO 20009KT 10SM SCT015 BKN020 OVC060 M02/M05 A2986 RMK AO2 T10171050 TSNO
KADG 111753Z AUTO 22007KT 10SM FEW015 OVC055 M02/M04 A2990 RMK AO2 SLP136 60002 T10221044 11022 21044 58027 TSNO
KADG 111737Z AUTO 21009KT 10SM SCT012 OVC055 M02/M04 A2991 RMK AO2 T10221044 TSNO
KADG 111653Z AUTO 22009KT 7SM OVC010 M02/M04 A2995 RMK AO2 SNE39 CIG 007V014 SLP152 P0000 T10221044 TSNO
KADG 111626Z AUTO 20005KT 3SM -SN BR BKN009 BKN013 OVC029 M03/M04 A2996 RMK AO2 P0000 T10281039 TSNO
KADG 111613Z AUTO 19005KT 2SM -SN BR SCT009 BKN013 OVC025 M03/M04 A2997 RMK AO2 P0000 T10281039 TSNO
KADG 111605Z AUTO 20006KT 1 3/4SM -SN BR BKN009 BKN015 OVC025 M03/M04 A2998 RMK AO2 P0000 T10281039 TSNO
KADG 111553Z AUTO 19005KT 1 1/4SM -SN BR BKN011 OVC018 M03/M04 A2998 RMK AO2 SLP164 P0002 T10331039 TSNO
KADG 111545Z AUTO 18005KT 1 1/4SM -SN BR BKN011 BKN015 OVC022 M03/M04 A2999 RMK AO2 CIG 009V013 P0001 T10331044 TSNO
KADG 111535Z AUTO 18005KT 1 1/2SM -SN BR SCT013 OVC022 M03/M04 A2999 RMK AO2 P0001 T10331044 TSNO
KADG 111518Z AUTO 18006KT 2SM -SN BR BKN024 BKN036 OVC047 M04/M05 A2999 RMK AO2 P0001 T10391050 TSNO
KADG 111514Z AUTO 18005KT 1 1/2SM -SN BR BKN024 BKN033 OVC050 M04/M05 A2999 RMK AO2 P0001 T10391050 TSNO
KADG 111507Z AUTO 17007KT 1 3/4SM -SN BR FEW024 BKN031 OVC047 M04/M05 A2998 RMK AO2 P0001 T10391050 TSNO
KADG 111453Z AUTO 16006KT 1 1/4SM -SN BR BKN027 OVC047 M04/M06 A2998 RMK AO2 SLP164 P0000 60000 T10391056 58021 TSNO
KADG 111426Z AUTO 15006KT 1 1/2SM -SN BR OVC021 M04/M06 A3000 RMK AO2 P0000 T10441056 TSNO
KADG 111417Z AUTO 16005KT 3/4SM -SN BR OVC021 M04/M06 A3001 RMK AO2 P0000 T10441061 TSNO
KADG 111353Z AUTO 16005KT 1SM -SN BR BKN026 OVC032 M04/M06 A3002 RMK AO2 SNB41 SLP180 P0000 T10441061 TSNO
KADG 111350Z AUTO 16005KT 1 1/4SM -SN BR BKN026 OVC032 M04/M07 A3002 RMK AO2 SNB41 P0000 TSNO
KADG 111348Z AUTO 15004KT 1 3/4SM -SN BR SCT026 OVC032 M04/M07 A3003 RMK AO2 SNB41 P0000 TSNO
KADG 111253Z AUTO 14005KT 10SM OVC031 M04/M07 A3003 RMK AO2 SLP184 T10441067 TSNO $
KADG 111153Z AUTO 00000KT 10SM OVC033 M04/M07 A3004 RMK AO2 SLP186 T10441072 11039 21050 55001 TSNO $
KADG 111053Z AUTO 14003KT 10SM OVC034 M04/M07 A3002 RMK AO2 SLP177 T10441067 TSNO $
KADG 110953Z AUTO 00000KT 10SM OVC035 M04/M07 A3004 RMK AO2 SLP187 T10441067 TSNO $
KADG 110915Z AUTO 00000KT 10SM SCT020 OVC035 M04/M07 A3004 RMK AO2 T10441067 TSNO $
KADG 110903Z AUTO 00000KT 10SM BKN021 OVC036 M04/M07 A3005 RMK AO2 T10441067 TSNO $
KADG 110853Z AUTO 26003KT 10SM SCT021 OVC036 M04/M07 A3005 RMK AO2 SLP188 T10441067 53006 TSNO $
KADG 110848Z AUTO 00000KT 10SM SCT021 OVC037 M04/M07 A3004 RMK AO2 TSNO $
KADG 110830Z AUTO 00000KT 10SM BKN021 OVC038 M04/M07 A3004 RMK AO2 T10441072 TSNO $
KADG 110753Z AUTO 29003KT 10SM OVC038 M04/M07 A3003 RMK AO2 SLP183 T10441072 TSNO $
KADG 110653Z AUTO 31003KT 10SM OVC041 M04/M07 A3003 RMK AO2 SLP182 T10441072 TSNO $
KADG 110553Z AUTO 32003KT 10SM OVC040 M04/M07 A3002 RMK AO2 SLP180 T10391072 11022 21044 53014 TSNO $
KADG 110453Z AUTO 33007KT 10SM CLR M04/M07 A3001 RMK AO2 SLP175 T10391072 410221061 TSNO $
KADG 110426Z AUTO 33008KT 10SM FEW019 SCT023 BKN032 M03/M06 A2999 RMK AO2 T10331061 TSNO $
KADG 110353Z AUTO 33008KT 10SM BKN015 OVC020 M03/M05 A2999 RMK AO2 SLP169 T10281050 TSNO $
KADG 110337Z AUTO 34009KT 9SM BKN015 OVC021 M03/M05 A2999 RMK AO2 T10281050 TSNO $
KADG 110312Z AUTO 32006KT 8SM BKN014 BKN021 OVC030 M02/M04 A2999 RMK AO2 T10221044 TSNO $
KADG 110253Z AUTO 32008KT 10SM BKN016 OVC031 M02/M04 A2998 RMK AO2 SLP166 T10221044 53010 TSNO $
KADG 110206Z AUTO 27006KT 10SM BKN018 OVC033 M02/M06 A2997 RMK AO2 T10221061 TSNO $
KADG 110153Z AUTO 28005KT 10SM FEW022 OVC033 M02/M06 A2997 RMK AO2 SLP161 T10221061 TSNO $
KADG 110101Z AUTO 26006KT 10SM OVC031 M02/M07 A2996 RMK AO2 T10221067 TSNO $
KADG 110053Z AUTO 27006KT 10SM OVC029 M02/M07 A2996 RMK AO2 SLP159 T10221067 TSNO $
KADG 102353Z AUTO 25005KT 10SM OVC026 M02/M07 A2995 RMK AO2 SLP154 T10221067 11022 21044 51013 TSNO $
KADG 102253Z AUTO 23007KT 10SM OVC028 M03/M07 A2994 RMK AO2 SLP150 T10281067 TSNO $
KADG 102228Z AUTO 22005KT 10SM OVC029 M03/M07 A2993 RMK AO2 T10331067 TSNO $